createdAt,value
2023-04-23T00:00:00.350Z,50.877232
2023-04-23T00:01:00.307Z,50.877293
2023-04-23T00:02:00.290Z,50.877254
2023-04-23T00:03:00.445Z,50.877285
2023-04-23T00:04:00.387Z,50.877277
2023-04-23T00:05:00.535Z,50.877251
2023-04-23T00:06:00.249Z,50.877270
2023-04-23T00:07:00.255Z,50.877262
2023-04-23T00:08:00.221Z,50.877232
2023-04-23T00:09:00.212Z,50.877186
2023-04-23T00:10:00.243Z,50.877277
2023-04-23T00:11:00.201Z,50.877258
2023-04-23T00:12:00.228Z,50.877270
2023-04-23T00:13:00.177Z,50.877258
2023-04-23T00:14:00.176Z,50.877197
2023-04-23T00:15:00.184Z,50.877243
2023-04-23T00:16:00.410Z,50.877121
2023-04-23T00:17:00.165Z,50.877102
2023-04-23T00:18:00.197Z,50.877190
2023-04-23T00:19:00.119Z,50.877094
2023-04-23T00:20:00.124Z,50.877190
2023-04-23T00:21:00.124Z,50.877239
2023-04-23T00:22:00.105Z,50.877396
2023-04-23T00:23:00.084Z,50.877251
2023-04-23T00:24:00.075Z,50.877213
2023-04-23T00:25:00.062Z,50.877129
2023-04-23T00:26:00.100Z,50.877193
2023-04-23T00:27:00.022Z,50.877163
2023-04-23T00:28:00.061Z,50.877182
2023-04-23T00:29:00.029Z,50.877193
2023-04-23T00:30:00.006Z,50.877182
2023-04-23T00:31:00.003Z,50.877247
2023-04-23T00:32:00.009Z,50.877232
2023-04-23T00:32:59.998Z,50.877186
2023-04-23T00:33:59.986Z,50.877144
2023-04-23T00:34:59.958Z,50.877201
2023-04-23T00:35:59.937Z,50.877201
2023-04-23T00:36:59.927Z,50.877045
2023-04-23T00:37:59.921Z,50.877216
2023-04-23T00:38:59.971Z,50.877216
2023-04-23T00:39:59.899Z,50.877178
2023-04-23T00:40:59.909Z,50.877220
2023-04-23T00:41:59.905Z,50.877243
2023-04-23T00:42:59.873Z,50.877209
2023-04-23T00:43:59.903Z,50.877281
2023-04-23T00:44:59.855Z,50.877304
2023-04-23T00:45:59.859Z,50.877209
2023-04-23T00:46:59.831Z,50.877277
2023-04-23T00:48:00.049Z,50.877251
2023-04-23T00:48:59.810Z,50.877243
2023-04-23T00:49:59.785Z,50.877190
2023-04-23T00:50:59.789Z,50.877190
2023-04-23T00:51:59.775Z,50.877193
2023-04-23T00:52:59.790Z,50.877308
2023-04-23T00:53:59.749Z,50.877304
2023-04-23T00:54:59.742Z,50.877304
2023-04-23T00:55:59.737Z,50.877296
2023-04-23T00:56:59.765Z,50.877308
2023-04-23T00:57:59.727Z,50.877270
2023-04-23T00:58:59.695Z,50.877205
2023-04-23T00:59:59.685Z,50.877251
2023-04-23T01:00:59.732Z,50.877247
2023-04-23T01:01:59.659Z,50.877304
2023-04-23T01:02:59.828Z,50.877289
2023-04-23T01:03:59.816Z,50.877281
2023-04-23T01:04:59.657Z,50.877266
2023-04-23T01:05:59.625Z,50.877239
2023-04-23T01:06:59.616Z,50.877243
2023-04-23T01:07:59.609Z,50.877304
2023-04-23T01:08:59.645Z,50.877312
2023-04-23T01:09:59.573Z,50.877293
2023-04-23T01:10:59.583Z,50.877296
2023-04-23T01:11:59.561Z,50.877296
2023-04-23T01:12:59.603Z,50.877254
2023-04-23T01:13:59.564Z,50.877254
2023-04-23T01:14:59.543Z,50.877239
2023-04-23T01:15:59.525Z,50.877247
2023-04-23T01:16:59.533Z,50.877254
2023-04-23T01:17:59.560Z,50.877262
2023-04-23T01:18:59.513Z,50.877258
2023-04-23T01:19:59.488Z,50.877274
2023-04-23T01:20:59.507Z,50.877243
2023-04-23T01:21:59.502Z,50.877251
2023-04-23T01:22:59.498Z,50.877251
2023-04-23T01:23:59.492Z,50.877251
2023-04-23T01:24:59.438Z,50.877251
2023-04-23T01:25:59.492Z,50.877228
2023-04-23T01:26:59.432Z,50.877258
2023-04-23T01:27:59.457Z,50.877274
2023-04-23T01:28:59.457Z,50.877277
2023-04-23T01:29:59.379Z,50.877262
2023-04-23T01:30:59.414Z,50.877262
2023-04-23T01:31:59.355Z,50.877262
2023-04-23T01:32:59.425Z,50.877274
2023-04-23T01:33:59.363Z,50.877243
2023-04-23T01:34:59.349Z,50.877274
2023-04-23T01:35:59.308Z,50.877254
2023-04-23T01:36:59.420Z,50.877266
2023-04-23T01:37:59.292Z,50.877228
2023-04-23T01:38:59.275Z,50.877262
2023-04-23T01:39:59.295Z,50.877235
2023-04-23T01:40:59.271Z,50.877243
2023-04-23T01:41:59.261Z,50.877254
2023-04-23T01:42:59.250Z,50.877209
2023-04-23T01:43:59.258Z,50.877220
2023-04-23T01:44:59.223Z,50.877239
2023-04-23T01:45:59.266Z,50.877239
2023-04-23T01:46:59.200Z,50.877243
2023-04-23T01:47:59.242Z,50.877228
2023-04-23T01:48:59.179Z,50.877232
2023-04-23T01:49:59.183Z,50.877239
2023-04-23T01:50:59.180Z,50.877224
2023-04-23T01:51:59.158Z,50.877243
2023-04-23T01:52:59.135Z,50.877239
2023-04-23T01:53:59.178Z,50.877213
2023-04-23T01:54:59.146Z,50.877220
2023-04-23T01:55:59.166Z,50.877232
2023-04-23T01:56:59.125Z,50.877293
2023-04-23T01:57:59.105Z,50.877254
2023-04-23T01:58:59.107Z,50.877220
2023-04-23T01:59:59.067Z,50.877232
2023-04-23T02:00:59.101Z,50.877243
2023-04-23T02:01:59.110Z,50.877239
2023-04-23T02:02:59.098Z,50.877201
2023-04-23T02:03:59.217Z,50.877224
2023-04-23T02:04:59.052Z,50.877224
2023-04-23T02:05:59.006Z,50.877224
2023-04-23T02:06:59.037Z,50.877247
2023-04-23T02:07:59.001Z,50.877277
2023-04-23T02:08:59.026Z,50.877266
2023-04-23T02:09:58.983Z,50.877274
2023-04-23T02:10:59.043Z,50.877228
2023-04-23T02:11:58.980Z,50.877220
2023-04-23T02:12:58.960Z,50.877159
2023-04-23T02:13:58.936Z,50.877163
2023-04-23T02:14:58.930Z,50.877262
2023-04-23T02:15:58.950Z,50.877235
2023-04-23T02:16:58.925Z,50.877239
2023-04-23T02:17:58.944Z,50.877243
2023-04-23T02:18:58.890Z,50.877239
2023-04-23T02:19:58.883Z,50.877247
2023-04-23T02:20:58.894Z,50.877216
2023-04-23T02:21:58.869Z,50.877205
2023-04-23T02:22:58.863Z,50.877213
2023-04-23T02:23:58.843Z,50.877213
2023-04-23T02:24:58.851Z,50.877228
2023-04-23T02:25:58.813Z,50.877213
2023-04-23T02:26:58.818Z,50.877205
2023-04-23T02:27:58.796Z,50.877209
2023-04-23T02:28:58.797Z,50.877205
2023-04-23T02:29:58.800Z,50.877197
2023-04-23T02:30:58.805Z,50.877216
2023-04-23T02:31:58.793Z,50.877239
2023-04-23T02:32:58.817Z,50.877224
2023-04-23T02:33:58.758Z,50.877205
2023-04-23T02:34:58.737Z,50.877243
2023-04-23T02:35:58.716Z,50.877213
2023-04-23T02:36:58.745Z,50.877251
2023-04-23T02:37:58.729Z,50.877228
2023-04-23T02:38:58.692Z,50.877243
2023-04-23T02:39:58.676Z,50.877243
2023-04-23T02:40:58.673Z,50.877235
2023-04-23T02:41:58.657Z,50.877216
2023-04-23T02:42:58.694Z,50.877205
2023-04-23T02:43:58.663Z,50.877171
2023-04-23T02:44:58.633Z,50.877190
2023-04-23T02:45:58.624Z,50.877209
2023-04-23T02:46:58.714Z,50.877232
2023-04-23T02:47:58.650Z,50.877224
2023-04-23T02:48:58.611Z,50.877190
2023-04-23T02:49:58.580Z,50.877171
2023-04-23T02:50:58.613Z,50.877213
2023-04-23T02:51:58.557Z,50.877205
2023-04-23T02:52:58.559Z,50.877224
2023-04-23T02:53:58.560Z,50.877247
2023-04-23T02:54:58.554Z,50.877247
2023-04-23T02:55:58.527Z,50.877220
2023-04-23T02:56:58.512Z,50.877228
2023-04-23T02:57:58.503Z,50.877209
2023-04-23T02:59:30.424Z,50.877209
2023-04-23T02:59:58.500Z,50.877205
2023-04-23T03:00:58.516Z,50.877209
2023-04-23T03:01:58.539Z,50.877228
2023-04-23T03:02:59.572Z,50.877201
2023-04-23T03:03:58.540Z,50.877205
2023-04-23T03:04:58.435Z,50.877190
2023-04-23T03:05:59.479Z,50.877220
2023-04-23T03:06:58.412Z,50.877213
2023-04-23T03:07:58.428Z,50.877201
2023-04-23T03:08:58.393Z,50.877193
2023-04-23T03:09:58.410Z,50.877193
2023-04-23T03:10:58.377Z,50.877182
2023-04-23T03:11:58.363Z,50.877193
2023-04-23T03:12:58.345Z,50.877190
2023-04-23T03:13:58.375Z,50.877186
2023-04-23T03:14:58.356Z,50.877144
2023-04-23T03:15:58.335Z,50.877171
2023-04-23T03:16:58.395Z,50.877182
2023-04-23T03:17:58.355Z,50.877163
2023-04-23T03:18:58.302Z,50.877171
2023-04-23T03:19:58.297Z,50.877167
2023-04-23T03:20:58.302Z,50.877190
2023-04-23T03:21:58.273Z,50.877190
2023-04-23T03:22:58.267Z,50.877190
2023-04-23T03:23:58.268Z,50.877182
2023-04-23T03:24:58.231Z,50.877174
2023-04-23T03:25:58.217Z,50.877174
2023-04-23T03:26:58.202Z,50.877193
2023-04-23T03:27:58.229Z,50.877186
2023-04-23T03:28:58.229Z,50.877163
2023-04-23T03:29:58.182Z,50.877132
2023-04-23T03:30:58.269Z,50.877171
2023-04-23T03:31:58.206Z,50.877205
2023-04-23T03:32:58.166Z,50.877159
2023-04-23T03:33:58.209Z,50.877186
2023-04-23T03:34:58.149Z,50.877209
2023-04-23T03:35:58.134Z,50.877197
2023-04-23T03:36:58.128Z,50.877205
2023-04-23T03:37:58.111Z,50.877190
2023-04-23T03:38:59.091Z,50.877190
2023-04-23T03:39:58.161Z,50.877201
2023-04-23T03:40:58.104Z,50.877216
2023-04-23T03:41:58.072Z,50.877216
2023-04-23T03:42:58.064Z,50.877201
2023-04-23T03:43:58.039Z,50.877190
2023-04-23T03:44:58.047Z,50.877209
2023-04-23T03:45:58.090Z,50.877197
2023-04-23T03:46:58.032Z,50.877209
2023-04-23T03:47:58.029Z,50.877220
2023-04-23T03:48:57.994Z,50.877228
2023-04-23T03:49:57.986Z,50.877182
2023-04-23T03:50:58.037Z,50.877190
2023-04-23T03:51:57.957Z,50.877197
2023-04-23T03:52:58.014Z,50.877205
2023-04-23T03:53:57.940Z,50.877193
2023-04-23T03:54:57.935Z,50.877193
2023-04-23T03:55:57.974Z,50.877197
2023-04-23T03:56:57.910Z,50.877201
2023-04-23T03:57:57.900Z,50.877197
2023-04-23T03:58:57.890Z,50.877224
2023-04-23T03:59:57.921Z,50.877216
2023-04-23T04:00:57.918Z,50.877232
2023-04-23T04:01:57.852Z,50.877228
2023-04-23T04:02:57.920Z,50.877216
2023-04-23T04:03:58.082Z,50.877228
2023-04-23T04:04:58.156Z,50.877224
2023-04-23T04:05:57.859Z,50.877220
2023-04-23T04:06:57.838Z,50.877224
2023-04-23T04:07:57.848Z,50.877209
2023-04-23T04:08:57.788Z,50.877216
2023-04-23T04:09:57.827Z,50.877228
2023-04-23T04:10:57.777Z,50.877213
2023-04-23T04:11:57.764Z,50.877186
2023-04-23T04:12:57.776Z,50.877186
2023-04-23T04:13:57.749Z,50.877209
2023-04-23T04:14:57.728Z,50.877220
2023-04-23T04:15:57.840Z,50.877216
2023-04-23T04:16:57.709Z,50.877232
2023-04-23T04:17:57.730Z,50.877201
2023-04-23T04:18:57.731Z,50.877159
2023-04-23T04:19:57.696Z,50.877182
2023-04-23T04:20:57.707Z,50.877205
2023-04-23T04:21:57.693Z,50.877220
2023-04-23T04:22:57.660Z,50.877205
2023-04-23T04:23:57.648Z,50.877193
2023-04-23T04:24:57.679Z,50.877197
2023-04-23T04:25:57.674Z,50.877190
2023-04-23T04:26:57.616Z,50.877216
2023-04-23T04:27:57.609Z,50.877201
2023-04-23T04:28:57.594Z,50.877186
2023-04-23T04:29:57.624Z,50.877182
2023-04-23T04:30:57.609Z,50.877205
2023-04-23T04:31:57.569Z,50.877197
2023-04-23T04:32:57.587Z,50.877216
2023-04-23T04:33:57.552Z,50.877193
2023-04-23T04:34:57.533Z,50.877193
2023-04-23T04:35:57.593Z,50.877213
2023-04-23T04:36:57.507Z,50.877209
2023-04-23T04:37:57.523Z,50.877193
2023-04-23T04:38:57.527Z,50.877186
2023-04-23T04:39:57.511Z,50.877224
2023-04-23T04:40:57.491Z,50.877216
2023-04-23T04:41:57.477Z,50.877220
2023-04-23T04:42:57.501Z,50.877220
2023-04-23T04:43:57.452Z,50.877216
2023-04-23T04:44:57.494Z,50.877228
2023-04-23T04:45:57.441Z,50.877213
2023-04-23T04:46:57.444Z,50.877232
2023-04-23T04:47:58.536Z,50.877243
2023-04-23T04:48:57.417Z,50.877239
2023-04-23T04:49:57.437Z,50.877239
2023-04-23T04:50:57.391Z,50.877201
2023-04-23T04:51:57.373Z,50.877239
2023-04-23T04:52:57.353Z,50.877232
2023-04-23T04:53:57.376Z,50.877209
2023-04-23T04:54:57.348Z,50.877235
2023-04-23T04:55:57.334Z,50.877243
2023-04-23T04:56:57.350Z,50.877239
2023-04-23T04:57:57.330Z,50.877224
2023-04-23T04:58:57.315Z,50.877213
2023-04-23T04:59:57.315Z,50.877201
2023-04-23T05:00:57.322Z,50.877197
2023-04-23T05:01:57.305Z,50.877197
2023-04-23T05:02:57.395Z,50.877186
2023-04-23T05:03:57.431Z,50.877197
2023-04-23T05:04:57.266Z,50.877197
2023-04-23T05:05:57.246Z,50.877216
2023-04-23T05:06:57.245Z,50.877213
2023-04-23T05:07:57.222Z,50.877228
2023-04-23T05:08:57.224Z,50.877213
2023-04-23T05:09:57.236Z,50.877224
2023-04-23T05:10:57.190Z,50.877243
2023-04-23T05:11:57.190Z,50.877201
2023-04-23T05:12:57.169Z,50.877163
2023-04-23T05:13:57.147Z,50.877220
2023-04-23T05:14:57.162Z,50.877224
2023-04-23T05:15:58.162Z,50.877213
2023-04-23T05:16:57.167Z,50.877216
2023-04-23T05:17:57.197Z,50.877224
2023-04-23T05:18:57.135Z,50.877216
2023-04-23T05:19:57.091Z,50.877239
2023-04-23T05:20:57.154Z,50.877274
2023-04-23T05:21:57.119Z,50.877247
2023-04-23T05:22:57.085Z,50.877213
2023-04-23T05:23:57.082Z,50.877224
2023-04-23T05:24:57.077Z,50.877232
2023-04-23T05:25:57.039Z,50.877262
2023-04-23T05:26:57.045Z,50.877254
2023-04-23T05:27:57.066Z,50.877220
2023-04-23T05:28:57.006Z,50.877228
2023-04-23T05:29:56.997Z,50.877201
2023-04-23T05:30:56.985Z,50.877232
2023-04-23T05:31:57.053Z,50.877277
2023-04-23T05:32:57.011Z,50.877232
2023-04-23T05:33:56.972Z,50.877174
2023-04-23T05:34:56.971Z,50.877151
2023-04-23T05:35:56.946Z,50.877178
2023-04-23T05:36:56.952Z,50.877193
2023-04-23T05:37:56.919Z,50.877182
2023-04-23T05:38:56.914Z,50.877213
2023-04-23T05:39:56.888Z,50.877171
2023-04-23T05:40:56.902Z,50.877144
2023-04-23T05:41:56.861Z,50.877121
2023-04-23T05:42:56.866Z,50.877163
2023-04-23T05:43:56.872Z,50.877190
2023-04-23T05:44:56.853Z,50.877186
2023-04-23T05:45:56.849Z,50.877151
2023-04-23T05:46:56.823Z,50.877167
2023-04-23T05:47:56.846Z,50.877209
2023-04-23T05:48:56.806Z,50.877182
2023-04-23T05:49:56.824Z,50.877182
2023-04-23T05:50:56.792Z,50.877197
2023-04-23T05:51:56.800Z,50.877190
2023-04-23T05:52:56.777Z,50.877159
2023-04-23T05:53:56.776Z,50.877174
2023-04-23T05:54:56.723Z,50.877193
2023-04-23T05:55:56.794Z,50.877197
2023-04-23T05:56:56.713Z,50.877197
2023-04-23T05:57:56.906Z,50.877174
2023-04-23T05:58:56.689Z,50.877197
2023-04-23T05:59:56.701Z,50.877174
2023-04-23T06:00:56.688Z,50.877182
2023-04-23T06:01:56.697Z,50.877190
2023-04-23T06:02:56.829Z,50.877197
2023-04-23T06:03:56.761Z,50.877182
2023-04-23T06:04:56.803Z,50.877174
2023-04-23T06:05:56.661Z,50.877174
2023-04-23T06:06:56.644Z,50.877174
2023-04-23T06:07:56.611Z,50.877167
2023-04-23T06:08:56.592Z,50.877190
2023-04-23T06:09:56.596Z,50.877186
2023-04-23T06:10:56.597Z,50.877193
2023-04-23T06:11:56.555Z,50.877171
2023-04-23T06:12:56.567Z,50.877155
2023-04-23T06:13:56.546Z,50.877140
2023-04-23T06:14:56.537Z,50.877155
2023-04-23T06:15:56.534Z,50.877155
2023-04-23T06:16:56.546Z,50.877155
2023-04-23T06:17:56.527Z,50.877171
2023-04-23T06:18:56.504Z,50.877148
2023-04-23T06:19:56.480Z,50.877155
2023-04-23T06:20:56.462Z,50.877178
2023-04-23T06:21:56.475Z,50.877148
2023-04-23T06:22:56.475Z,50.877136
2023-04-23T06:23:56.432Z,50.877163
2023-04-23T06:24:56.437Z,50.877159
2023-04-23T06:25:56.436Z,50.877132
2023-04-23T06:26:56.413Z,50.877136
2023-04-23T06:27:56.396Z,50.877144
2023-04-23T06:28:56.425Z,50.877151
2023-04-23T06:29:56.397Z,50.877155
2023-04-23T06:30:56.371Z,50.877163
2023-04-23T06:31:56.359Z,50.877148
2023-04-23T06:32:56.399Z,50.877121
2023-04-23T06:33:56.360Z,50.877113
2023-04-23T06:35:01.553Z,50.877083
2023-04-23T06:35:58.330Z,50.877148
2023-04-23T06:36:56.311Z,50.877159
2023-04-23T06:37:56.315Z,50.877125
2023-04-23T06:38:56.277Z,50.877186
2023-04-23T06:39:56.308Z,50.877148
2023-04-23T06:40:56.273Z,50.877125
2023-04-23T06:41:56.259Z,50.877094
2023-04-23T06:42:56.242Z,50.877090
2023-04-23T06:43:56.235Z,50.877094
2023-04-23T06:44:56.248Z,50.877060
2023-04-23T06:45:56.260Z,50.877098
2023-04-23T06:46:56.221Z,50.877037
2023-04-23T06:47:56.332Z,50.877079
2023-04-23T06:48:56.204Z,50.877129
2023-04-23T06:49:56.261Z,50.877148
2023-04-23T06:50:56.223Z,50.877151
2023-04-23T06:51:57.793Z,50.877163
2023-04-23T06:52:57.154Z,50.877182
2023-04-23T06:53:56.180Z,50.877197
2023-04-23T06:54:56.132Z,50.877167
2023-04-23T06:55:56.139Z,50.877163
2023-04-23T06:56:56.181Z,50.877148
2023-04-23T06:57:56.113Z,50.877144
2023-04-23T06:58:56.161Z,50.877163
2023-04-23T06:59:56.106Z,50.877167
2023-04-23T07:00:56.091Z,50.877171
2023-04-23T07:01:56.166Z,50.877144
2023-04-23T07:02:56.119Z,50.877140
2023-04-23T07:03:56.081Z,50.877148
2023-04-23T07:04:56.037Z,50.877151
2023-04-23T07:05:56.040Z,50.877140
2023-04-23T07:06:56.272Z,50.877151
2023-04-23T07:07:56.022Z,50.877174
2023-04-23T07:08:57.006Z,50.877155
2023-04-23T07:09:56.012Z,50.877171
2023-04-23T07:10:55.993Z,50.877163
2023-04-23T07:11:56.284Z,50.877186
2023-04-23T07:12:56.025Z,50.877190
2023-04-23T07:13:55.978Z,50.877159
2023-04-23T07:14:56.012Z,50.877182
2023-04-23T07:15:55.952Z,50.877186
2023-04-23T07:16:55.989Z,50.877186
2023-04-23T07:17:55.958Z,50.877167
2023-04-23T07:18:55.914Z,50.877182
2023-04-23T07:19:55.907Z,50.877193
2023-04-23T07:20:55.934Z,50.877205
2023-04-23T07:21:55.896Z,50.877235
2023-04-23T07:22:55.893Z,50.877201
2023-04-23T07:23:55.909Z,50.877190
2023-04-23T07:24:56.119Z,50.877213
2023-04-23T07:25:55.868Z,50.877216
2023-04-23T07:26:55.849Z,50.877209
2023-04-23T07:27:55.854Z,50.877205
2023-04-23T07:28:55.818Z,50.877182
2023-04-23T07:29:55.856Z,50.877186
2023-04-23T07:30:55.807Z,50.877197
2023-04-23T07:31:55.876Z,50.877213
2023-04-23T07:32:55.891Z,50.877201
2023-04-23T07:33:55.791Z,50.877182
2023-04-23T07:34:55.790Z,50.877171
2023-04-23T07:35:55.843Z,50.877182
2023-04-23T07:36:55.764Z,50.877182
2023-04-23T07:37:55.959Z,50.877171
2023-04-23T07:38:55.733Z,50.877163
2023-04-23T07:39:55.729Z,50.877197
2023-04-23T07:40:55.729Z,50.877205
2023-04-23T07:41:55.720Z,50.877197
2023-04-23T07:42:55.683Z,50.877197
2023-04-23T07:43:55.686Z,50.877205
2023-04-23T07:44:55.685Z,50.877209
2023-04-23T07:45:55.720Z,50.877178
2023-04-23T07:46:55.647Z,50.877186
2023-04-23T07:47:55.673Z,50.877178
2023-04-23T07:48:55.633Z,50.877163
2023-04-23T07:49:55.616Z,50.877159
2023-04-23T07:50:55.607Z,50.877182
2023-04-23T07:51:55.616Z,50.877190
2023-04-23T07:52:55.609Z,50.877174
2023-04-23T07:53:55.591Z,50.877186
2023-04-23T07:54:55.589Z,50.877182
2023-04-23T07:55:55.588Z,50.877106
2023-04-23T07:56:55.562Z,50.877155
2023-04-23T07:57:55.540Z,50.877144
2023-04-23T07:58:55.523Z,50.877155
2023-04-23T07:59:55.557Z,50.877167
2023-04-23T08:00:55.523Z,50.877190
2023-04-23T08:01:55.505Z,50.877190
2023-04-23T08:02:55.564Z,50.877163
2023-04-23T08:03:58.400Z,50.877174
2023-04-23T08:04:55.560Z,50.877178
2023-04-23T08:05:55.467Z,50.877213
2023-04-23T08:06:55.455Z,50.877171
2023-04-23T08:07:55.444Z,50.877213
2023-04-23T08:08:55.443Z,50.877220
2023-04-23T08:09:55.435Z,50.877247
2023-04-23T08:10:55.417Z,50.877140
2023-04-23T08:11:55.458Z,50.877125
2023-04-23T08:12:55.398Z,50.877174
2023-04-23T08:13:55.400Z,50.877140
2023-04-23T08:14:55.366Z,50.877148
2023-04-23T08:15:55.385Z,50.877209
2023-04-23T08:16:55.387Z,50.877167
2023-04-23T08:17:55.458Z,50.877174
2023-04-23T08:19:05.005Z,50.877136
2023-04-23T08:19:56.326Z,50.877193
2023-04-23T08:20:55.332Z,50.877182
2023-04-23T08:21:55.316Z,50.877193
2023-04-23T08:22:55.319Z,50.877213
2023-04-23T08:23:55.280Z,50.877151
2023-04-23T08:24:55.301Z,50.877136
2023-04-23T08:25:55.338Z,50.877110
2023-04-23T08:26:55.276Z,50.877144
2023-04-23T08:27:55.261Z,50.877174
2023-04-23T08:28:55.261Z,50.877075
2023-04-23T08:29:55.245Z,50.877174
2023-04-23T08:30:55.222Z,50.877171
2023-04-23T08:31:55.239Z,50.877171
2023-04-23T08:32:55.315Z,50.877132
2023-04-23T08:33:55.224Z,50.877129
2023-04-23T08:34:55.183Z,50.877148
2023-04-23T08:35:55.162Z,50.877174
2023-04-23T08:36:55.153Z,50.877167
2023-04-23T08:37:55.148Z,50.877167
2023-04-23T08:38:55.174Z,50.877186
2023-04-23T08:39:56.137Z,50.877178
2023-04-23T08:40:55.121Z,50.877171
2023-04-23T08:41:55.138Z,50.877190
2023-04-23T08:42:55.105Z,50.877174
2023-04-23T08:43:55.091Z,50.877193
2023-04-23T08:44:55.189Z,50.877186
2023-04-23T08:45:56.084Z,50.877167
2023-04-23T08:46:55.193Z,50.877190
2023-04-23T08:47:55.072Z,50.877171
2023-04-23T08:48:55.045Z,50.877167
2023-04-23T08:49:55.028Z,50.877167
2023-04-23T08:50:55.035Z,50.877205
2023-04-23T08:51:55.022Z,50.877232
2023-04-23T08:52:55.023Z,50.877232
2023-04-23T08:53:55.008Z,50.877193
2023-04-23T08:54:55.031Z,50.877171
2023-04-23T08:55:54.962Z,50.877205
2023-04-23T08:56:54.969Z,50.877190
2023-04-23T08:57:54.984Z,50.877201
2023-04-23T08:58:57.021Z,50.877182
2023-04-23T08:59:55.920Z,50.877193
2023-04-23T09:00:54.987Z,50.877209
2023-04-23T09:01:54.921Z,50.877193
2023-04-23T09:02:55.153Z,50.877178
2023-04-23T09:03:55.090Z,50.877178
2023-04-23T09:04:56.298Z,50.877178
2023-04-23T09:05:55.890Z,50.877190
2023-04-23T09:06:54.853Z,50.877186
2023-04-23T09:07:54.858Z,50.877186
2023-04-23T09:08:54.835Z,50.877182
2023-04-23T09:09:54.840Z,50.877190
2023-04-23T09:10:54.827Z,50.877193
2023-04-23T09:11:55.124Z,50.877197
2023-04-23T09:12:55.799Z,50.877201
2023-04-23T09:13:54.789Z,50.877209
2023-04-23T09:14:54.850Z,50.877205
2023-04-23T09:15:54.766Z,50.877197
2023-04-23T09:16:54.840Z,50.877197
2023-04-23T09:17:54.785Z,50.877209
2023-04-23T09:18:54.755Z,50.877228
2023-04-23T09:19:54.741Z,50.877243
2023-04-23T09:20:54.725Z,50.877205
2023-04-23T09:21:54.704Z,50.877132
2023-04-23T09:22:54.722Z,50.877178
2023-04-23T09:23:54.716Z,50.877277
2023-04-23T09:24:54.726Z,50.877213
2023-04-23T09:25:54.682Z,50.877178
2023-04-23T09:26:54.661Z,50.877205
2023-04-23T09:27:54.738Z,50.877209
2023-04-23T09:28:54.630Z,50.877151
2023-04-23T09:29:54.686Z,50.877228
2023-04-23T09:30:54.619Z,50.877277
2023-04-23T09:31:54.674Z,50.877331
2023-04-23T09:32:54.775Z,50.877277
2023-04-23T09:33:54.629Z,50.877281
2023-04-23T09:34:54.601Z,50.877308
2023-04-23T09:35:54.585Z,50.877277
2023-04-23T09:36:54.572Z,50.877243
2023-04-23T09:37:54.587Z,50.877254
2023-04-23T09:38:54.588Z,50.877232
2023-04-23T09:39:54.546Z,50.877300
2023-04-23T09:40:54.531Z,50.877312
2023-04-23T09:41:54.570Z,50.877274
2023-04-23T09:42:54.926Z,50.877308
2023-04-23T09:43:54.504Z,50.877258
2023-04-23T09:44:54.503Z,50.877327
2023-04-23T09:45:54.585Z,50.877384
2023-04-23T09:46:54.480Z,50.877323
2023-04-23T09:47:54.605Z,50.877304
2023-04-23T09:48:54.476Z,50.877312
2023-04-23T09:49:54.469Z,50.877258
2023-04-23T09:50:54.426Z,50.877262
2023-04-23T09:51:54.423Z,50.877251
2023-04-23T09:52:54.419Z,50.877232
2023-04-23T09:53:54.488Z,50.877209
2023-04-23T09:54:54.385Z,50.877205
2023-04-23T09:55:54.388Z,50.877213
2023-04-23T09:56:54.383Z,50.877224
2023-04-23T09:57:54.402Z,50.877220
2023-04-23T09:58:54.357Z,50.877224
2023-04-23T10:00:03.712Z,50.877228
2023-04-23T10:00:56.363Z,50.877239
2023-04-23T10:01:54.308Z,50.877247
2023-04-23T10:02:54.413Z,50.877213
2023-04-23T10:03:54.436Z,50.877209
2023-04-23T10:05:00.850Z,50.877205
2023-04-23T10:06:01.638Z,50.877193
2023-04-23T10:07:13.829Z,50.877213
2023-04-23T10:07:55.265Z,50.877201
2023-04-23T10:08:54.271Z,50.877205
2023-04-23T10:09:54.269Z,50.877213
2023-04-23T10:11:05.975Z,50.877228
2023-04-23T10:11:56.216Z,50.877232
2023-04-23T10:12:55.561Z,50.877239
2023-04-23T10:13:55.222Z,50.877224
2023-04-23T10:14:54.208Z,50.877220
2023-04-23T10:15:54.233Z,50.877220
2023-04-23T10:16:54.284Z,50.877235
2023-04-23T10:17:54.229Z,50.877232
2023-04-23T10:18:54.177Z,50.877216
2023-04-23T10:19:54.160Z,50.877213
2023-04-23T10:20:54.147Z,50.877190
2023-04-23T10:21:57.994Z,50.877205
2023-04-23T10:22:56.154Z,50.877201
2023-04-23T10:23:54.172Z,50.877220
2023-04-23T10:24:54.091Z,50.877228
2023-04-23T10:25:54.163Z,50.877205
2023-04-23T10:26:54.092Z,50.877216
2023-04-23T10:27:54.788Z,50.877232
2023-04-23T10:28:55.051Z,50.877216
2023-04-23T10:29:54.058Z,50.877220
2023-04-23T10:30:54.073Z,50.877209
2023-04-23T10:31:54.024Z,50.877220
2023-04-23T10:32:54.067Z,50.877216
2023-04-23T10:33:58.615Z,50.877213
2023-04-23T10:34:55.996Z,50.877193
2023-04-23T10:35:53.977Z,50.877209
2023-04-23T10:36:53.973Z,50.877213
2023-04-23T10:37:53.958Z,50.877235
2023-04-23T10:38:58.401Z,50.877201
2023-04-23T10:39:55.942Z,50.877201
2023-04-23T10:40:53.939Z,50.877216
2023-04-23T10:41:53.921Z,50.877213
2023-04-23T10:42:54.508Z,50.877216
2023-04-23T10:43:53.930Z,50.877220
2023-04-23T10:45:00.873Z,50.877209
2023-04-23T10:45:55.902Z,50.877224
2023-04-23T10:46:53.953Z,50.877205
2023-04-23T10:47:53.889Z,50.877178
2023-04-23T10:48:53.863Z,50.877209
2023-04-23T10:49:53.873Z,50.877224
2023-04-23T10:51:09.716Z,50.877220
2023-04-23T10:52:54.865Z,50.877220
2023-04-23T10:53:53.832Z,50.877209
2023-04-23T10:54:53.797Z,50.877224
2023-04-23T10:55:53.796Z,50.877190
2023-04-23T10:56:53.783Z,50.877182
2023-04-23T10:57:53.782Z,50.877193
2023-04-23T10:58:53.766Z,50.877209
2023-04-23T10:59:53.762Z,50.877174
2023-04-23T11:00:53.742Z,50.877151
2023-04-23T11:01:53.790Z,50.877178
2023-04-23T11:02:53.824Z,50.877174
2023-04-23T11:03:53.857Z,50.877178
2023-04-23T11:04:54.833Z,50.877178
2023-04-23T11:05:53.730Z,50.877182
2023-04-23T11:06:53.674Z,50.877197
2023-04-23T11:07:53.661Z,50.877178
2023-04-23T11:08:53.762Z,50.877201
2023-04-23T11:09:53.661Z,50.877171
2023-04-23T11:10:53.631Z,50.877155
2023-04-23T11:11:53.627Z,50.877159
2023-04-23T11:12:53.609Z,50.877178
2023-04-23T11:13:53.634Z,50.877129
2023-04-23T11:14:53.582Z,50.877140
2023-04-23T11:15:53.583Z,50.877163
2023-04-23T11:16:53.602Z,50.877186
2023-04-23T11:17:53.580Z,50.877167
2023-04-23T11:18:53.552Z,50.877075
2023-04-23T11:19:53.578Z,50.877106
2023-04-23T11:20:53.527Z,50.877151
2023-04-23T11:21:53.516Z,50.877167
2023-04-23T11:22:53.551Z,50.877171
2023-04-23T11:23:53.494Z,50.877174
2023-04-23T11:24:53.512Z,50.877178